sensor_id;sensor_type;location;lat;lon;timestamp;temperature;humidity
61351;DHT22;47119;49.130;9.218;2023-05-07T00:00:23;15.79;74.91
61351;DHT22;47119;49.130;9.218;2023-05-07T00:02:51;15.81;75.03
61351;DHT22;47119;49.130;9.218;2023-05-07T00:05:20;15.78;75.00
61351;DHT22;47119;49.130;9.218;2023-05-07T00:07:47;15.82;75.24
61351;DHT22;47119;49.130;9.218;2023-05-07T00:10:15;15.78;75.27
61351;DHT22;47119;49.130;9.218;2023-05-07T00:12:45;15.77;75.41
61351;DHT22;47119;49.130;9.218;2023-05-07T00:15:12;15.77;75.49
61351;DHT22;47119;49.130;9.218;2023-05-07T00:17:39;15.75;75.77
61351;DHT22;47119;49.130;9.218;2023-05-07T00:20:11;15.77;75.90
61351;DHT22;47119;49.130;9.218;2023-05-07T00:22:59;15.77;75.92
61351;DHT22;47119;49.130;9.218;2023-05-07T00:25:27;15.75;75.99
61351;DHT22;47119;49.130;9.218;2023-05-07T00:28:00;15.77;76.03
61351;DHT22;47119;49.130;9.218;2023-05-07T00:30:29;15.73;76.08
61351;DHT22;47119;49.130;9.218;2023-05-07T00:32:56;15.75;76.12
61351;DHT22;47119;49.130;9.218;2023-05-07T00:35:31;15.73;76.19
61351;DHT22;47119;49.130;9.218;2023-05-07T00:38:05;15.71;76.26
61351;DHT22;47119;49.130;9.218;2023-05-07T00:40:35;15.69;76.35
61351;DHT22;47119;49.130;9.218;2023-05-07T00:43:10;15.71;76.43
61351;DHT22;47119;49.130;9.218;2023-05-07T00:45:40;15.72;76.43
61351;DHT22;47119;49.130;9.218;2023-05-07T00:48:08;15.71;76.40
61351;DHT22;47119;49.130;9.218;2023-05-07T00:50:38;15.73;76.49
61351;DHT22;47119;49.130;9.218;2023-05-07T00:53:07;15.72;76.60
61351;DHT22;47119;49.130;9.218;2023-05-07T00:55:35;15.73;76.60
61351;DHT22;47119;49.130;9.218;2023-05-07T00:58:03;15.69;76.78
61351;DHT22;47119;49.130;9.218;2023-05-07T01:00:32;15.68;76.83
61351;DHT22;47119;49.130;9.218;2023-05-07T01:03:01;15.68;76.94
61351;DHT22;47119;49.130;9.218;2023-05-07T01:05:29;15.71;76.77
61351;DHT22;47119;49.130;9.218;2023-05-07T01:07:57;15.66;76.99
61351;DHT22;47119;49.130;9.218;2023-05-07T01:10:28;15.66;77.04
61351;DHT22;47119;49.130;9.218;2023-05-07T01:12:58;15.68;77.07
61351;DHT22;47119;49.130;9.218;2023-05-07T01:15:27;15.65;77.04
61351;DHT22;47119;49.130;9.218;2023-05-07T01:17:58;15.65;77.16
61351;DHT22;47119;49.130;9.218;2023-05-07T01:20:34;15.65;77.24
61351;DHT22;47119;49.130;9.218;2023-05-07T01:23:03;15.66;77.12
61351;DHT22;47119;49.130;9.218;2023-05-07T01:25:32;15.65;77.10
61351;DHT22;47119;49.130;9.218;2023-05-07T01:28:01;15.63;77.22
61351;DHT22;47119;49.130;9.218;2023-05-07T01:30:33;15.63;77.09
61351;DHT22;47119;49.130;9.218;2023-05-07T01:33:09;15.65;77.05
61351;DHT22;47119;49.130;9.218;2023-05-07T01:35:42;15.62;77.07
61351;DHT22;47119;49.130;9.218;2023-05-07T01:38:14;15.61;77.23
61351;DHT22;47119;49.130;9.218;2023-05-07T01:40:42;15.61;77.16
61351;DHT22;47119;49.130;9.218;2023-05-07T01:43:10;15.61;77.07
61351;DHT22;47119;49.130;9.218;2023-05-07T01:45:38;15.59;76.92
61351;DHT22;47119;49.130;9.218;2023-05-07T01:48:07;15.62;76.92
61351;DHT22;47119;49.130;9.218;2023-05-07T01:50:40;15.62;76.87
61351;DHT22;47119;49.130;9.218;2023-05-07T01:53:08;15.59;76.75
61351;DHT22;47119;49.130;9.218;2023-05-07T01:55:39;15.59;76.77
61351;DHT22;47119;49.130;9.218;2023-05-07T01:58:09;15.59;76.67
61351;DHT22;47119;49.130;9.218;2023-05-07T02:00:39;15.59;76.74
61351;DHT22;47119;49.130;9.218;2023-05-07T02:03:08;15.59;76.62
61351;DHT22;47119;49.130;9.218;2023-05-07T02:05:50;15.57;76.73
61351;DHT22;47119;49.130;9.218;2023-05-07T02:08:33;15.58;76.65
61351;DHT22;47119;49.130;9.218;2023-05-07T02:11:04;15.57;76.71
61351;DHT22;47119;49.130;9.218;2023-05-07T02:13:33;15.57;76.66
61351;DHT22;47119;49.130;9.218;2023-05-07T02:16:01;15.55;76.64
61351;DHT22;47119;49.130;9.218;2023-05-07T02:18:28;15.52;76.70
61351;DHT22;47119;49.130;9.218;2023-05-07T02:20:58;15.54;76.66
61351;DHT22;47119;49.130;9.218;2023-05-07T02:23:25;15.55;76.66
61351;DHT22;47119;49.130;9.218;2023-05-07T02:25:52;15.52;76.91
61351;DHT22;47119;49.130;9.218;2023-05-07T02:28:25;15.55;76.91
61351;DHT22;47119;49.130;9.218;2023-05-07T02:30:57;15.54;76.86
61351;DHT22;47119;49.130;9.218;2023-05-07T02:33:26;15.54;76.83
61351;DHT22;47119;49.130;9.218;2023-05-07T02:35:55;15.52;76.86
61351;DHT22;47119;49.130;9.218;2023-05-07T02:38:27;15.52;76.89
61351;DHT22;47119;49.130;9.218;2023-05-07T02:40:54;15.51;76.91
61351;DHT22;47119;49.130;9.218;2023-05-07T02:43:23;15.51;76.86
61351;DHT22;47119;49.130;9.218;2023-05-07T02:46:01;15.50;76.92
61351;DHT22;47119;49.130;9.218;2023-05-07T02:48:29;15.47;77.09
61351;DHT22;47119;49.130;9.218;2023-05-07T02:50:58;15.47;77.01
61351;DHT22;47119;49.130;9.218;2023-05-07T02:53:28;15.48;76.97
61351;DHT22;47119;49.130;9.218;2023-05-07T02:55:55;15.45;77.07
61351;DHT22;47119;49.130;9.218;2023-05-07T02:58:24;15.48;76.89
61351;DHT22;47119;49.130;9.218;2023-05-07T03:00:51;15.45;77.06
61351;DHT22;47119;49.130;9.218;2023-05-07T03:03:53;15.45;76.96
61351;DHT22;47119;49.130;9.218;2023-05-07T03:06:25;15.42;77.07
61351;DHT22;47119;49.130;9.218;2023-05-07T03:08:54;15.44;77.03
61351;DHT22;47119;49.130;9.218;2023-05-07T03:11:24;15.45;77.03
61351;DHT22;47119;49.130;9.218;2023-05-07T03:13:53;15.45;76.89
61351;DHT22;47119;49.130;9.218;2023-05-07T03:16:23;15.40;76.97
61351;DHT22;47119;49.130;9.218;2023-05-07T03:18:52;15.41;76.98
61351;DHT22;47119;49.130;9.218;2023-05-07T03:21:21;15.40;77.07
61351;DHT22;47119;49.130;9.218;2023-05-07T03:23:51;15.41;77.01
61351;DHT22;47119;49.130;9.218;2023-05-07T03:26:18;15.41;76.98
61351;DHT22;47119;49.130;9.218;2023-05-07T03:28:50;15.40;76.92
61351;DHT22;47119;49.130;9.218;2023-05-07T03:31:20;15.42;77.00
61351;DHT22;47119;49.130;9.218;2023-05-07T03:33:52;15.41;76.98
61351;DHT22;47119;49.130;9.218;2023-05-07T03:36:20;15.40;76.93
61351;DHT22;47119;49.130;9.218;2023-05-07T03:38:48;15.41;76.91
61351;DHT22;47119;49.130;9.218;2023-05-07T03:41:19;15.40;76.84
61351;DHT22;47119;49.130;9.218;2023-05-07T03:43:46;15.38;76.87
61351;DHT22;47119;49.130;9.218;2023-05-07T03:46:13;15.37;76.87
61351;DHT22;47119;49.130;9.218;2023-05-07T03:48:43;15.37;76.95
61351;DHT22;47119;49.130;9.218;2023-05-07T03:51:13;15.35;76.90
61351;DHT22;47119;49.130;9.218;2023-05-07T03:53:42;15.40;76.52
61351;DHT22;47119;49.130;9.218;2023-05-07T03:56:14;15.41;76.54
61351;DHT22;47119;49.130;9.218;2023-05-07T03:58:43;15.37;76.53
61351;DHT22;47119;49.130;9.218;2023-05-07T04:01:13;15.38;76.45
61351;DHT22;47119;49.130;9.218;2023-05-07T04:03:40;15.37;76.51
61351;DHT22;47119;49.130;9.218;2023-05-07T04:06:09;15.32;76.62
61351;DHT22;47119;49.130;9.218;2023-05-07T04:08:37;15.37;76.46
61351;DHT22;47119;49.130;9.218;2023-05-07T04:11:06;15.37;76.32
61351;DHT22;47119;49.130;9.218;2023-05-07T04:13:38;15.34;76.27
61351;DHT22;47119;49.130;9.218;2023-05-07T04:16:09;15.34;76.36
61351;DHT22;47119;49.130;9.218;2023-05-07T04:18:37;15.35;76.41
61351;DHT22;47119;49.130;9.218;2023-05-07T04:21:14;15.38;76.42
61351;DHT22;47119;49.130;9.218;2023-05-07T04:23:46;15.37;76.48
61351;DHT22;47119;49.130;9.218;2023-05-07T04:26:14;15.34;76.33
61351;DHT22;47119;49.130;9.218;2023-05-07T04:28:43;15.34;76.36
61351;DHT22;47119;49.130;9.218;2023-05-07T04:31:13;15.35;76.38
61351;DHT22;47119;49.130;9.218;2023-05-07T04:33:41;15.38;76.37
61351;DHT22;47119;49.130;9.218;2023-05-07T04:36:13;15.34;76.40
61351;DHT22;47119;49.130;9.218;2023-05-07T04:38:48;15.38;76.40
61351;DHT22;47119;49.130;9.218;2023-05-07T04:41:21;15.35;76.44
61351;DHT22;47119;49.130;9.218;2023-05-07T04:43:48;15.34;76.54
61351;DHT22;47119;49.130;9.218;2023-05-07T04:46:20;15.35;76.52
61351;DHT22;47119;49.130;9.218;2023-05-07T04:48:50;15.34;76.60
61351;DHT22;47119;49.130;9.218;2023-05-07T04:51:20;15.34;76.61
61351;DHT22;47119;49.130;9.218;2023-05-07T04:53:51;15.34;76.54
61351;DHT22;47119;49.130;9.218;2023-05-07T04:56:20;15.37;76.64
61351;DHT22;47119;49.130;9.218;2023-05-07T04:58:50;15.35;76.68
61351;DHT22;47119;49.130;9.218;2023-05-07T05:01:22;15.37;76.68
61351;DHT22;47119;49.130;9.218;2023-05-07T05:03:51;15.37;76.76
61351;DHT22;47119;49.130;9.218;2023-05-07T05:06:19;15.34;76.62
61351;DHT22;47119;49.130;9.218;2023-05-07T05:08:50;15.38;76.73
61351;DHT22;47119;49.130;9.218;2023-05-07T05:11:20;15.42;76.62
61351;DHT22;47119;49.130;9.218;2023-05-07T05:13:47;15.42;76.57
61351;DHT22;47119;49.130;9.218;2023-05-07T05:16:18;15.44;76.60
61351;DHT22;47119;49.130;9.218;2023-05-07T05:18:47;15.48;76.39
61351;DHT22;47119;49.130;9.218;2023-05-07T05:21:17;15.51;76.32
61351;DHT22;47119;49.130;9.218;2023-05-07T05:23:51;15.47;76.25
61351;DHT22;47119;49.130;9.218;2023-05-07T05:26:23;15.47;76.01
61351;DHT22;47119;49.130;9.218;2023-05-07T05:28:53;15.50;75.99
61351;DHT22;47119;49.130;9.218;2023-05-07T05:31:23;15.51;75.80
61351;DHT22;47119;49.130;9.218;2023-05-07T05:33:53;15.47;75.87
61351;DHT22;47119;49.130;9.218;2023-05-07T05:36:22;15.45;75.67
61351;DHT22;47119;49.130;9.218;2023-05-07T05:38:55;15.48;75.54
61351;DHT22;47119;49.130;9.218;2023-05-07T05:41:27;15.47;75.54
61351;DHT22;47119;49.130;9.218;2023-05-07T05:43:55;15.48;75.41
61351;DHT22;47119;49.130;9.218;2023-05-07T05:46:22;15.48;75.30
61351;DHT22;47119;49.130;9.218;2023-05-07T05:48:50;15.48;75.18
61351;DHT22;47119;49.130;9.218;2023-05-07T05:51:25;15.50;75.01
61351;DHT22;47119;49.130;9.218;2023-05-07T05:53:55;15.51;75.00
61351;DHT22;47119;49.130;9.218;2023-05-07T05:56:26;15.51;75.08
61351;DHT22;47119;49.130;9.218;2023-05-07T05:58:56;15.52;74.96
61351;DHT22;47119;49.130;9.218;2023-05-07T06:01:25;15.55;74.82
61351;DHT22;47119;49.130;9.218;2023-05-07T06:03:56;15.57;74.97
61351;DHT22;47119;49.130;9.218;2023-05-07T06:06:25;15.55;74.88
61351;DHT22;47119;49.130;9.218;2023-05-07T06:08:53;15.59;74.73
61351;DHT22;47119;49.130;9.218;2023-05-07T06:11:26;15.59;74.61
61351;DHT22;47119;49.130;9.218;2023-05-07T06:13:53;15.62;74.62
61351;DHT22;47119;49.130;9.218;2023-05-07T06:16:20;15.59;74.71
61351;DHT22;47119;49.130;9.218;2023-05-07T06:18:50;15.62;74.57
61351;DHT22;47119;49.130;9.218;2023-05-07T06:21:19;15.63;74.45
61351;DHT22;47119;49.130;9.218;2023-05-07T06:23:49;15.66;74.56
61351;DHT22;47119;49.130;9.218;2023-05-07T06:26:19;15.65;74.42
61351;DHT22;47119;49.130;9.218;2023-05-07T06:28:52;15.69;74.50
61351;DHT22;47119;49.130;9.218;2023-05-07T06:31:29;15.73;74.28
61351;DHT22;47119;49.130;9.218;2023-05-07T06:34:07;15.75;74.25
61351;DHT22;47119;49.130;9.218;2023-05-07T06:36:36;15.72;74.37
61351;DHT22;47119;49.130;9.218;2023-05-07T06:39:15;15.72;74.30
61351;DHT22;47119;49.130;9.218;2023-05-07T06:41:42;15.75;74.20
61351;DHT22;47119;49.130;9.218;2023-05-07T06:44:22;15.75;74.12
61351;DHT22;47119;49.130;9.218;2023-05-07T06:47:01;15.72;74.42
61351;DHT22;47119;49.130;9.218;2023-05-07T06:49:30;15.78;74.09
61351;DHT22;47119;49.130;9.218;2023-05-07T06:52:00;15.78;74.33
61351;DHT22;47119;49.130;9.218;2023-05-07T06:54:29;15.78;74.22
61351;DHT22;47119;49.130;9.218;2023-05-07T06:56:59;15.79;74.15
61351;DHT22;47119;49.130;9.218;2023-05-07T06:59:29;15.81;74.30
61351;DHT22;47119;49.130;9.218;2023-05-07T07:01:56;15.82;74.18
61351;DHT22;47119;49.130;9.218;2023-05-07T07:04:26;15.82;74.23
61351;DHT22;47119;49.130;9.218;2023-05-07T07:07:00;15.81;74.39
61351;DHT22;47119;49.130;9.218;2023-05-07T07:09:31;15.82;74.44
61351;DHT22;47119;49.130;9.218;2023-05-07T07:12:01;15.82;74.36
61351;DHT22;47119;49.130;9.218;2023-05-07T07:14:31;15.83;74.42
61351;DHT22;47119;49.130;9.218;2023-05-07T07:17:02;15.85;74.39
61351;DHT22;47119;49.130;9.218;2023-05-07T07:19:31;15.86;74.36
61351;DHT22;47119;49.130;9.218;2023-05-07T07:21:59;15.90;74.24
61351;DHT22;47119;49.130;9.218;2023-05-07T07:24:26;15.83;74.60
61351;DHT22;47119;49.130;9.218;2023-05-07T09:49:23;15.96;76.70
61351;DHT22;47119;49.130;9.218;2023-05-07T09:52:01;15.98;76.73
61351;DHT22;47119;49.130;9.218;2023-05-07T09:54:37;15.99;76.76
61351;DHT22;47119;49.130;9.218;2023-05-07T09:57:43;15.98;76.70
61351;DHT22;47119;49.130;9.218;2023-05-07T10:08:29;16.00;76.79
61351;DHT22;47119;49.130;9.218;2023-05-07T10:11:44;16.00;76.91
61351;DHT22;47119;49.130;9.218;2023-05-07T10:14:45;15.99;76.46
61351;DHT22;47119;49.130;9.218;2023-05-07T10:17:16;15.99;76.65
61351;DHT22;47119;49.130;9.218;2023-05-07T10:20:00;15.98;76.57
61351;DHT22;47119;49.130;9.218;2023-05-07T10:22:41;15.98;76.66
61351;DHT22;47119;49.130;9.218;2023-05-07T10:25:19;15.95;76.67
61351;DHT22;47119;49.130;9.218;2023-05-07T10:27:53;15.98;76.63
61351;DHT22;47119;49.130;9.218;2023-05-07T10:30:33;15.99;76.69
61351;DHT22;47119;49.130;9.218;2023-05-07T10:33:16;15.99;76.61
61351;DHT22;47119;49.130;9.218;2023-05-07T10:35:57;15.95;76.67
61351;DHT22;47119;49.130;9.218;2023-05-07T10:38:31;15.95;76.66
61351;DHT22;47119;49.130;9.218;2023-05-07T10:41:07;15.98;76.62
61351;DHT22;47119;49.130;9.218;2023-05-07T10:43:41;15.99;76.61
61351;DHT22;47119;49.130;9.218;2023-05-07T10:46:19;15.98;76.54
61351;DHT22;47119;49.130;9.218;2023-05-07T10:49:11;15.96;76.55
61351;DHT22;47119;49.130;9.218;2023-05-07T15:23:24;16.12;87.48
61351;DHT22;47119;49.130;9.218;2023-05-07T15:25:56;16.08;86.73
61351;DHT22;47119;49.130;9.218;2023-05-07T15:28:29;16.09;87.13
61351;DHT22;47119;49.130;9.218;2023-05-07T15:30:58;16.12;88.46
61351;DHT22;47119;49.130;9.218;2023-05-07T15:33:27;16.10;88.57
61351;DHT22;47119;49.130;9.218;2023-05-07T15:35:54;16.13;89.30
61351;DHT22;47119;49.130;9.218;2023-05-07T15:38:25;16.13;87.96
61351;DHT22;47119;49.130;9.218;2023-05-07T15:40:53;16.13;88.97
61351;DHT22;47119;49.130;9.218;2023-05-07T15:43:24;16.13;88.83
61351;DHT22;47119;49.130;9.218;2023-05-07T15:45:52;16.12;88.61
61351;DHT22;47119;49.130;9.218;2023-05-07T15:48:19;16.12;89.34
61351;DHT22;47119;49.130;9.218;2023-05-07T15:50:48;16.09;87.32
61351;DHT22;47119;49.130;9.218;2023-05-07T15:53:16;16.12;88.57
61351;DHT22;47119;49.130;9.218;2023-05-07T15:55:45;16.10;88.15
61351;DHT22;47119;49.130;9.218;2023-05-07T15:58:45;16.12;90.08
61351;DHT22;47119;49.130;9.218;2023-05-07T16:01:15;16.10;89.01
61351;DHT22;47119;49.130;9.218;2023-05-07T16:03:43;16.06;86.74
61351;DHT22;47119;49.130;9.218;2023-05-07T16:06:10;16.09;89.01
61351;DHT22;47119;49.130;9.218;2023-05-07T16:09:12;16.03;89.28
61351;DHT22;47119;49.130;9.218;2023-05-07T16:12:28;16.06;87.75
61351;DHT22;47119;49.130;9.218;2023-05-07T16:14:57;16.05;89.20
61351;DHT22;47119;49.130;9.218;2023-05-07T16:17:24;16.08;88.63
61351;DHT22;47119;49.130;9.218;2023-05-07T16:19:59;16.06;88.34
61351;DHT22;47119;49.130;9.218;2023-05-07T16:22:28;16.06;90.36
61351;DHT22;47119;49.130;9.218;2023-05-07T16:24:56;16.05;90.47
61351;DHT22;47119;49.130;9.218;2023-05-07T16:27:24;16.03;88.24
61351;DHT22;47119;49.130;9.218;2023-05-07T16:29:52;16.09;88.65
61351;DHT22;47119;49.130;9.218;2023-05-07T16:32:19;16.06;88.14
61351;DHT22;47119;49.130;9.218;2023-05-07T16:34:47;16.03;89.00
61351;DHT22;47119;49.130;9.218;2023-05-07T16:37:14;16.00;89.19
61351;DHT22;47119;49.130;9.218;2023-05-07T16:39:51;16.00;88.18
61351;DHT22;47119;49.130;9.218;2023-05-07T16:42:18;15.98;88.22
61351;DHT22;47119;49.130;9.218;2023-05-07T16:44:47;16.00;88.50
61351;DHT22;47119;49.130;9.218;2023-05-07T16:47:14;16.03;88.91
61351;DHT22;47119;49.130;9.218;2023-05-07T16:49:41;16.02;88.44
61351;DHT22;47119;49.130;9.218;2023-05-07T16:52:15;16.00;88.38
61351;DHT22;47119;49.130;9.218;2023-05-07T16:54:55;15.92;88.49
61351;DHT22;47119;49.130;9.218;2023-05-07T16:57:25;15.90;87.87
61351;DHT22;47119;49.130;9.218;2023-05-07T16:59:56;15.88;88.08
61351;DHT22;47119;49.130;9.218;2023-05-07T17:02:24;15.96;88.50
61351;DHT22;47119;49.130;9.218;2023-05-07T17:04:51;15.98;89.24
61351;DHT22;47119;49.130;9.218;2023-05-07T17:07:21;15.95;89.20
61351;DHT22;47119;49.130;9.218;2023-05-07T17:09:51;15.93;88.90
61351;DHT22;47119;49.130;9.218;2023-05-07T17:12:18;15.95;88.90
61351;DHT22;47119;49.130;9.218;2023-05-07T17:14:47;16.02;88.54
61351;DHT22;47119;49.130;9.218;2023-05-07T17:17:16;15.98;89.14
61351;DHT22;47119;49.130;9.218;2023-05-07T17:19:47;16.00;88.34
61351;DHT22;47119;49.130;9.218;2023-05-07T17:22:14;16.00;88.74
61351;DHT22;47119;49.130;9.218;2023-05-07T17:24:42;16.02;88.58
61351;DHT22;47119;49.130;9.218;2023-05-07T17:27:12;16.02;88.74
61351;DHT22;47119;49.130;9.218;2023-05-07T17:29:39;16.00;89.14
61351;DHT22;47119;49.130;9.218;2023-05-07T17:32:06;16.02;87.92
61351;DHT22;47119;49.130;9.218;2023-05-07T17:34:35;15.99;88.60
61351;DHT22;47119;49.130;9.218;2023-05-07T17:37:03;16.02;88.62
61351;DHT22;47119;49.130;9.218;2023-05-07T17:39:31;15.98;88.85
61351;DHT22;47119;49.130;9.218;2023-05-07T17:42:01;15.99;89.57
61351;DHT22;47119;49.130;9.218;2023-05-07T17:44:29;15.99;88.98
61351;DHT22;47119;49.130;9.218;2023-05-07T17:46:56;16.00;89.26
61351;DHT22;47119;49.130;9.218;2023-05-07T17:49:24;16.00;89.03
61351;DHT22;47119;49.130;9.218;2023-05-07T17:51:52;15.99;89.57
61351;DHT22;47119;49.130;9.218;2023-05-07T17:54:20;15.98;89.39
61351;DHT22;47119;49.130;9.218;2023-05-07T17:56:48;16.00;89.26
61351;DHT22;47119;49.130;9.218;2023-05-07T17:59:16;16.00;89.37
61351;DHT22;47119;49.130;9.218;2023-05-07T18:01:43;15.99;89.06
61351;DHT22;47119;49.130;9.218;2023-05-07T18:04:11;15.99;89.73
61351;DHT22;47119;49.130;9.218;2023-05-07T18:06:38;15.93;90.10
61351;DHT22;47119;49.130;9.218;2023-05-07T18:09:10;15.96;89.11
61351;DHT22;47119;49.130;9.218;2023-05-07T18:11:39;15.98;89.08
61351;DHT22;47119;49.130;9.218;2023-05-07T18:14:09;15.99;89.00
61351;DHT22;47119;49.130;9.218;2023-05-07T18:16:38;15.96;90.31
61351;DHT22;47119;49.130;9.218;2023-05-07T18:19:06;15.95;89.36
61351;DHT22;47119;49.130;9.218;2023-05-07T18:21:33;15.98;88.77
61351;DHT22;47119;49.130;9.218;2023-05-07T18:24:05;16.00;88.08
61351;DHT22;47119;49.130;9.218;2023-05-07T18:26:34;16.00;88.81
61351;DHT22;47119;49.130;9.218;2023-05-07T18:29:01;16.00;88.76
61351;DHT22;47119;49.130;9.218;2023-05-07T18:31:28;16.00;88.74
61351;DHT22;47119;49.130;9.218;2023-05-07T18:33:56;16.00;89.62
61351;DHT22;47119;49.130;9.218;2023-05-07T18:36:25;15.96;89.66
61351;DHT22;47119;49.130;9.218;2023-05-07T18:38:54;15.99;89.16
61351;DHT22;47119;49.130;9.218;2023-05-07T18:41:22;15.99;89.18
61351;DHT22;47119;49.130;9.218;2023-05-07T18:43:50;16.02;89.41
61351;DHT22;47119;49.130;9.218;2023-05-07T18:46:17;15.99;89.72
61351;DHT22;47119;49.130;9.218;2023-05-07T18:48:44;15.99;89.68
61351;DHT22;47119;49.130;9.218;2023-05-07T18:51:11;16.00;89.65
61351;DHT22;47119;49.130;9.218;2023-05-07T18:53:43;15.99;89.04
61351;DHT22;47119;49.130;9.218;2023-05-07T18:56:10;15.99;89.72
61351;DHT22;47119;49.130;9.218;2023-05-07T18:58:38;15.98;89.91
61351;DHT22;47119;49.130;9.218;2023-05-07T19:01:06;15.96;89.81
61351;DHT22;47119;49.130;9.218;2023-05-07T19:03:35;15.98;89.52
61351;DHT22;47119;49.130;9.218;2023-05-07T19:06:02;15.99;90.05
61351;DHT22;47119;49.130;9.218;2023-05-07T19:08:30;15.98;90.27
61351;DHT22;47119;49.130;9.218;2023-05-07T19:10:57;15.99;89.37
61351;DHT22;47119;49.130;9.218;2023-05-07T19:13:27;16.02;89.36
61351;DHT22;47119;49.130;9.218;2023-05-07T19:15:54;15.99;89.19
61351;DHT22;47119;49.130;9.218;2023-05-07T19:18:23;15.99;89.25
61351;DHT22;47119;49.130;9.218;2023-05-07T19:20:51;15.99;90.21
61351;DHT22;47119;49.130;9.218;2023-05-07T19:23:20;15.99;89.80
61351;DHT22;47119;49.130;9.218;2023-05-07T19:25:47;16.00;89.39
61351;DHT22;47119;49.130;9.218;2023-05-07T19:28:15;16.00;89.92
61351;DHT22;47119;49.130;9.218;2023-05-07T19:30:42;16.00;89.75
61351;DHT22;47119;49.130;9.218;2023-05-07T19:33:11;16.03;89.37
61351;DHT22;47119;49.130;9.218;2023-05-07T19:35:44;16.02;89.56
61351;DHT22;47119;49.130;9.218;2023-05-07T19:38:14;16.02;89.17
61351;DHT22;47119;49.130;9.218;2023-05-07T19:40:43;16.00;89.31
61351;DHT22;47119;49.130;9.218;2023-05-07T19:43:13;16.00;89.19
61351;DHT22;47119;49.130;9.218;2023-05-07T19:45:40;16.02;89.17
61351;DHT22;47119;49.130;9.218;2023-05-07T19:48:08;16.00;89.71
61351;DHT22;47119;49.130;9.218;2023-05-07T19:50:38;15.99;89.58
61351;DHT22;47119;49.130;9.218;2023-05-07T19:53:06;16.00;89.97
61351;DHT22;47119;49.130;9.218;2023-05-07T19:55:34;15.98;90.22
61351;DHT22;47119;49.130;9.218;2023-05-07T19:58:01;15.99;89.42
61351;DHT22;47119;49.130;9.218;2023-05-07T20:00:32;16.00;89.50
61351;DHT22;47119;49.130;9.218;2023-05-07T20:03:02;15.99;89.60
61351;DHT22;47119;49.130;9.218;2023-05-07T20:05:29;15.99;89.70
61351;DHT22;47119;49.130;9.218;2023-05-07T20:07:57;15.98;90.12
61351;DHT22;47119;49.130;9.218;2023-05-07T20:10:26;15.96;90.32
61351;DHT22;47119;49.130;9.218;2023-05-07T20:12:53;15.95;89.86
61351;DHT22;47119;49.130;9.218;2023-05-07T20:15:20;15.99;89.91
61351;DHT22;47119;49.130;9.218;2023-05-07T20:17:50;15.96;90.86
61351;DHT22;47119;49.130;9.218;2023-05-07T20:20:17;15.96;89.89
61351;DHT22;47119;49.130;9.218;2023-05-07T20:22:45;15.95;90.30
61351;DHT22;47119;49.130;9.218;2023-05-07T20:25:13;15.95;90.47
61351;DHT22;47119;49.130;9.218;2023-05-07T20:27:41;15.95;90.11
61351;DHT22;47119;49.130;9.218;2023-05-07T20:30:09;15.98;90.12
61351;DHT22;47119;49.130;9.218;2023-05-07T20:32:38;15.96;90.32
61351;DHT22;47119;49.130;9.218;2023-05-07T20:35:06;15.95;90.46
61351;DHT22;47119;49.130;9.218;2023-05-07T20:37:35;15.96;90.13
61351;DHT22;47119;49.130;9.218;2023-05-07T20:40:11;15.98;89.39
61351;DHT22;47119;49.130;9.218;2023-05-07T20:42:39;15.99;89.84
61351;DHT22;47119;49.130;9.218;2023-05-07T20:45:09;15.98;90.40
61351;DHT22;47119;49.130;9.218;2023-05-07T20:47:37;15.96;89.96
61351;DHT22;47119;49.130;9.218;2023-05-07T20:50:05;15.95;90.09
61351;DHT22;47119;49.130;9.218;2023-05-07T20:52:33;15.96;90.17
61351;DHT22;47119;49.130;9.218;2023-05-07T20:55:00;15.98;90.09
61351;DHT22;47119;49.130;9.218;2023-05-07T20:57:28;15.92;90.17
61351;DHT22;47119;49.130;9.218;2023-05-07T20:59:55;15.93;90.06
61351;DHT22;47119;49.130;9.218;2023-05-07T21:02:24;15.93;90.70
61351;DHT22;47119;49.130;9.218;2023-05-07T21:04:51;15.93;90.43
61351;DHT22;47119;49.130;9.218;2023-05-07T21:07:18;15.93;89.95
61351;DHT22;47119;49.130;9.218;2023-05-07T21:09:46;15.92;90.13
61351;DHT22;47119;49.130;9.218;2023-05-07T21:12:13;15.96;90.15
61351;DHT22;47119;49.130;9.218;2023-05-07T21:14:46;15.93;90.89
61351;DHT22;47119;49.130;9.218;2023-05-07T21:17:13;15.95;90.38
61351;DHT22;47119;49.130;9.218;2023-05-07T21:19:41;15.95;90.95
61351;DHT22;47119;49.130;9.218;2023-05-07T21:22:08;15.95;90.65
61351;DHT22;47119;49.130;9.218;2023-05-07T21:24:35;15.96;89.89
61351;DHT22;47119;49.130;9.218;2023-05-07T21:27:03;15.98;90.04
61351;DHT22;47119;49.130;9.218;2023-05-07T21:29:30;15.96;90.53
61351;DHT22;47119;49.130;9.218;2023-05-07T21:31:57;15.95;90.23
61351;DHT22;47119;49.130;9.218;2023-05-07T21:34:24;15.96;90.45
61351;DHT22;47119;49.130;9.218;2023-05-07T21:36:56;15.98;90.32
61351;DHT22;47119;49.130;9.218;2023-05-07T21:39:24;15.99;90.02
61351;DHT22;47119;49.130;9.218;2023-05-07T21:41:51;15.96;90.46
61351;DHT22;47119;49.130;9.218;2023-05-07T21:44:18;15.99;90.13
61351;DHT22;47119;49.130;9.218;2023-05-07T21:46:45;15.95;90.28
61351;DHT22;47119;49.130;9.218;2023-05-07T21:49:14;15.98;90.48
61351;DHT22;47119;49.130;9.218;2023-05-07T21:51:42;15.95;90.34
61351;DHT22;47119;49.130;9.218;2023-05-07T21:54:10;15.96;90.42
61351;DHT22;47119;49.130;9.218;2023-05-07T21:56:37;15.96;90.36
61351;DHT22;47119;49.130;9.218;2023-05-07T21:59:04;15.96;90.72
61351;DHT22;47119;49.130;9.218;2023-05-07T22:01:31;15.95;90.66
61351;DHT22;47119;49.130;9.218;2023-05-07T22:03:59;15.95;90.12
61351;DHT22;47119;49.130;9.218;2023-05-07T22:06:28;15.95;90.60
61351;DHT22;47119;49.130;9.218;2023-05-07T22:08:55;15.95;89.84
61351;DHT22;47119;49.130;9.218;2023-05-07T22:11:27;15.96;90.01
61351;DHT22;47119;49.130;9.218;2023-05-07T22:13:54;15.98;89.81
61351;DHT22;47119;49.130;9.218;2023-05-07T22:16:23;15.96;90.11
61351;DHT22;47119;49.130;9.218;2023-05-07T22:18:55;15.93;90.17
61351;DHT22;47119;49.130;9.218;2023-05-07T22:21:24;15.90;90.11
61351;DHT22;47119;49.130;9.218;2023-05-07T22:23:52;15.92;90.34
61351;DHT22;47119;49.130;9.218;2023-05-07T22:26:19;15.90;90.14
61351;DHT22;47119;49.130;9.218;2023-05-07T22:28:48;15.93;90.22
61351;DHT22;47119;49.130;9.218;2023-05-07T22:31:17;15.90;90.40
61351;DHT22;47119;49.130;9.218;2023-05-07T22:33:49;15.90;90.05
61351;DHT22;47119;49.130;9.218;2023-05-07T22:36:40;15.92;89.68
61351;DHT22;47119;49.130;9.218;2023-05-07T22:44:55;15.90;89.97
61351;DHT22;47119;49.130;9.218;2023-05-07T22:47:22;15.92;89.96
61351;DHT22;47119;49.130;9.218;2023-05-07T22:49:50;15.90;90.34
61351;DHT22;47119;49.130;9.218;2023-05-07T22:52:17;15.90;90.07
61351;DHT22;47119;49.130;9.218;2023-05-07T22:54:44;15.89;90.26
61351;DHT22;47119;49.130;9.218;2023-05-07T22:57:11;15.86;90.22